ADDS METAR Data INFO
IDs: Format: Raw Decoded Include TAF

Data at: 0258 UTC 21 Oct 2017

KGFL 210253Z AUTO 00000KT 10SM CLR 06/03 A3018 RMK AO2 SLP222 T00560028 53016
KGFL 210153Z AUTO 00000KT 10SM CLR 06/03 A3016 RMK AO2 SLP217 T00610028
KGFL 210053Z AUTO 00000KT 10SM CLR 07/03 A3014 RMK AO2 SLP211 T00720028
KGFL 202353Z AUTO 30005KT 10SM CLR 10/03 A3013 RMK AO2 SLP209 T01000028 10211 20094 53013
KGFL 202253Z AUTO 29005KT 10SM CLR 13/02 A3012 RMK AO2 SLP203 T01330022
KGFL 202153Z AUTO 31005KT 10SM CLR 17/01 A3011 RMK AO2 SLP198 T01670011
KGFL 202053Z AUTO 31007KT 10SM CLR 21/00 A3009 RMK AO2 SLP193 T02060000 55003
KGFL 201953Z AUTO 32008KT 10SM CLR 21/M01 A3009 RMK AO2 SLP188 T02111006
KGFL 201853Z AUTO 31011G20KT 10SM CLR 21/01 A3009 RMK AO2 SLP191 T02060006
KGFL 201753Z AUTO 29012G18KT 10SM CLR 20/01 A3010 RMK AO2 SLP194 T02000006 10200 20044 58012
KGFL 201653Z AUTO 33008KT 10SM CLR 19/02 A3012 RMK AO2 SLP199 T01890017
KGFL 201553Z AUTO 00000KT 10SM CLR 16/04 A3013 RMK AO2 SLP204 T01610039
KGFL 201453Z AUTO VRB06KT 10SM CLR 15/03 A3014 RMK AO2 SLP206 T01500033 50010
KGFL 201353Z AUTO 06003KT 10SM CLR 13/04 A3014 RMK AO2 SLP208 T01280044
KGFL 201253Z AUTO 00000KT 10SM CLR 10/05 A3013 RMK AO2 SLP206 T01000050
KGFL 201153Z AUTO 00000KT 10SM CLR 04/02 A3011 RMK AO2 SLP199 T00440022 10150 20022 53023
KGFL 201053Z AUTO 00000KT 10SM CLR 03/01 A3008 RMK AO2 SLP190 T00280011
KGFL 200953Z AUTO 00000KT 10SM CLR 06/03 A3006 RMK AO2 SLP180 T00560028
KGFL 200853Z AUTO 00000KT 10SM CLR 06/04 A3004 RMK AO2 SLP175 T00560039 51009
KGFL 200753Z AUTO 28004KT 10SM CLR 13/03 A3003 RMK AO2 SLP170 T01280033
KGFL 200653Z AUTO 26005KT 10SM CLR 14/05 A3002 RMK AO2 SLP166 T01440050
KGFL 200553Z AUTO 27006KT 10SM CLR 15/07 A3001 RMK AO2 SLP163 T01500067 10172 20111 51009
KGFL 200453Z AUTO 23006KT 10SM CLR 14/06 A3000 RMK AO2 SLP161 T01390061 402220017
KGFL 200353Z AUTO 26003KT 10SM CLR 12/07 A3000 RMK AO2 SLP159 T01220067
KGFL 200253Z AUTO 24005KT 10SM CLR 17/06 A2998 RMK AO2 SLP154 T01670061 50008
KGFL 200153Z AUTO 24004KT 10SM BKN065 OVC080 15/08 A2999 RMK AO2 SLP156 T01500078
KGFL 200053Z AUTO 19008KT 10SM SCT070 16/07 A2997 RMK AO2 SLP150 T01610072
KGFL 192353Z AUTO 20008KT 10SM BKN075 17/08 A2996 RMK AO2 SLP148 T01720078 10222 20167 53008
KGFL 192253Z AUTO 20009KT 10SM CLR 18/08 A2995 RMK AO2 SLP144 T01780078
KGFL 192153Z AUTO 20009KT 10SM CLR 19/08 A2994 RMK AO2 SLP141 T01940078
KGFL 192053Z AUTO 20011G16KT 10SM CLR 21/08 A2993 RMK AO2 SLP139 T02060078 56024
KGFL 191953Z AUTO 19013G20KT 10SM CLR 21/08 A2994 RMK AO2 SLP142 T02060078
KGFL 191853Z AUTO 19012G18KT 10SM CLR 22/07 A2997 RMK AO2 SLP152 T02170072
KGFL 191753Z AUTO 19010G16KT 10SM CLR 21/07 A3001 RMK AO2 SLP163 T02110067 10211 20028 58035
KGFL 191653Z AUTO 21009G19KT 10SM CLR 20/07 A3005 RMK AO2 SLP179 T02000067
KGFL 191553Z AUTO 18012G17KT 10SM CLR 18/07 A3009 RMK AO2 SLP192 T01830072